createdAt,value
2018-08-13T00:01:22.111Z,99989.16
2018-08-13T00:15:39.708Z,99970.06
2018-08-13T00:18:08.504Z,99972.87
2018-08-13T00:20:36.584Z,99978.52
2018-08-13T00:23:04.703Z,99977.52
2018-08-13T00:25:33.055Z,99964.30
2018-08-13T00:28:01.134Z,99958.69
2018-08-13T00:30:29.211Z,99957.20
2018-08-13T00:32:57.264Z,99947.72
2018-08-13T00:35:25.360Z,99952.64
2018-08-13T00:37:53.437Z,99950.84
2018-08-13T00:40:21.516Z,99949.55
2018-08-13T00:42:49.564Z,99956.52
2018-08-13T00:45:17.664Z,99950.35
2018-08-13T00:47:45.734Z,99955.81
2018-08-13T00:50:14.907Z,99954.85
2018-08-13T00:52:43.255Z,99955.09
2018-08-13T00:55:13.478Z,99957.22
2018-08-13T00:57:41.544Z,99958.97
2018-08-13T01:00:19.769Z,99946.13
2018-08-13T01:02:48.166Z,99945.80
2018-08-13T01:05:17.310Z,99937.52
2018-08-13T01:07:45.357Z,99930.30
2018-08-13T01:10:15.759Z,99925.70
2018-08-13T01:12:44.203Z,99927.88
2018-08-13T01:15:13.746Z,99930.63
2018-08-13T01:17:43.214Z,99922.48
2018-08-13T01:20:13.553Z,99914.59
2018-08-13T01:22:41.629Z,99914.72
2018-08-13T01:25:11.948Z,99918.69
2018-08-13T01:27:40.317Z,99914.58
2018-08-13T01:30:09.559Z,99911.19
2018-08-13T01:32:37.608Z,99917.66
2018-08-13T01:35:05.861Z,99909.46
2018-08-13T01:37:33.953Z,99915.48
2018-08-13T01:40:02.021Z,99913.51
2018-08-13T01:42:30.089Z,99914.52
2018-08-13T01:44:58.162Z,99916.84
2018-08-13T01:47:26.229Z,99912.48
2018-08-13T01:49:54.298Z,99918.64
2018-08-13T01:52:22.355Z,99920.70
2018-08-13T01:54:50.415Z,99916.47
2018-08-13T01:57:18.464Z,99929.38
2018-08-13T01:59:46.539Z,99936.80
2018-08-13T02:02:14.756Z,99933.92
2018-08-13T02:04:43.238Z,99934.05
2018-08-13T02:07:11.447Z,99929.70
2018-08-13T02:09:41.333Z,99928.29
2018-08-13T02:12:10.224Z,99924.63
2018-08-13T02:14:38.303Z,99904.47
2018-08-13T02:17:06.498Z,99906.47
2018-08-13T02:19:34.590Z,99898.23
2018-08-13T02:22:02.647Z,99890.72
2018-08-13T02:24:30.710Z,99883.53
2018-08-13T02:26:58.864Z,99883.29
2018-08-13T02:29:27.481Z,99882.50
2018-08-13T02:31:56.119Z,99876.34
2018-08-13T02:34:24.208Z,99882.82
2018-08-13T02:36:52.333Z,99883.77
2018-08-13T02:39:20.532Z,99881.67
2018-08-13T02:41:48.555Z,99881.33
2018-08-13T02:44:16.616Z,99882.27
2018-08-13T02:46:44.712Z,99885.93
2018-08-13T02:49:12.782Z,99872.95
2018-08-13T02:51:40.869Z,99869.07
2018-08-13T02:54:08.936Z,99868.09
2018-08-13T02:56:37.017Z,99859.35
2018-08-13T02:59:05.131Z,99857.09
2018-08-13T03:01:33.224Z,99855.09
2018-08-13T03:04:01.293Z,99852.16
2018-08-13T03:06:29.381Z,99847.17
2018-08-13T03:08:57.456Z,99842.69
2018-08-13T03:11:25.535Z,99842.52
2018-08-13T03:13:53.773Z,99843.05
2018-08-13T03:16:21.845Z,99840.81
2018-08-13T03:18:49.947Z,99840.25
2018-08-13T03:21:18.369Z,99848.13
2018-08-13T03:23:46.435Z,99841.09
2018-08-13T03:26:14.501Z,99845.82
2018-08-13T03:28:42.535Z,99846.47
2018-08-13T03:31:10.599Z,99845.86
2018-08-13T03:33:38.720Z,99850.72
2018-08-13T03:36:06.861Z,99842.36
2018-08-13T03:38:34.914Z,99841.52
2018-08-13T03:41:03.194Z,99841.00
2018-08-13T03:43:31.249Z,99837.66
2018-08-13T03:45:59.307Z,99835.22
2018-08-13T03:48:27.355Z,99831.63
2018-08-13T03:50:55.415Z,99831.53
2018-08-13T03:53:23.476Z,99828.06
2018-08-13T03:55:51.547Z,99825.09
2018-08-13T03:58:19.650Z,99822.18
2018-08-13T04:00:47.711Z,99821.77
2018-08-13T04:03:15.791Z,99816.91
2018-08-13T04:05:43.884Z,99802.00
2018-08-13T04:08:12.013Z,99793.44
2018-08-13T04:10:40.095Z,99787.87
2018-08-13T04:13:08.151Z,99794.55
2018-08-13T04:15:36.212Z,99790.88
2018-08-13T04:18:04.451Z,99802.80
2018-08-13T04:20:32.544Z,99805.20
2018-08-13T04:23:00.631Z,99804.45
2018-08-13T04:25:28.689Z,99808.90
2018-08-13T04:27:56.755Z,99822.21
2018-08-13T04:30:24.810Z,99819.31
2018-08-13T04:32:52.897Z,99817.09
2018-08-13T04:35:20.951Z,99814.22
2018-08-13T04:37:49.016Z,99801.95
2018-08-13T04:40:18.076Z,99802.66
2018-08-13T04:42:47.076Z,99805.53
2018-08-13T04:45:15.141Z,99803.81
2018-08-13T04:47:51.469Z,99802.68
2018-08-13T04:50:19.587Z,99792.69
2018-08-13T04:52:47.800Z,99777.39
2018-08-13T04:55:15.959Z,99777.01
2018-08-13T04:57:44.132Z,99769.41
2018-08-13T05:00:12.208Z,99766.58
2018-08-13T05:02:40.315Z,99773.23
2018-08-13T05:05:09.747Z,99770.92
2018-08-13T05:07:37.950Z,99766.86
2018-08-13T05:10:07.320Z,99767.69
2018-08-13T05:12:35.381Z,99769.30
2018-08-13T05:15:03.820Z,99771.25
2018-08-13T05:17:31.899Z,99775.77
2018-08-13T05:19:59.983Z,99774.57
2018-08-13T05:22:28.048Z,99794.31
2018-08-13T05:24:56.108Z,99773.66
2018-08-13T05:27:24.179Z,99781.61
2018-08-13T05:29:52.254Z,99771.39
2018-08-13T05:32:20.390Z,99777.98
2018-08-13T05:34:48.442Z,99788.69
2018-08-13T05:37:16.553Z,99789.28
2018-08-13T05:39:44.610Z,99795.58
2018-08-13T05:42:12.702Z,99791.70
2018-08-13T05:44:40.804Z,99801.33
2018-08-13T05:47:08.895Z,99800.38
2018-08-13T05:49:36.970Z,99791.78
2018-08-13T05:52:05.090Z,99822.19
2018-08-13T05:54:33.173Z,99832.09
2018-08-13T05:57:01.244Z,99832.55
2018-08-13T05:59:29.306Z,99840.89
2018-08-13T06:01:57.396Z,99828.20
2018-08-13T06:04:25.490Z,99829.28
2018-08-13T06:06:53.559Z,99841.78
2018-08-13T06:09:21.636Z,99854.79
2018-08-13T06:11:49.791Z,99863.47
2018-08-13T06:14:17.873Z,99855.78
2018-08-13T06:16:45.958Z,99911.77
2018-08-13T06:19:14.161Z,99923.78
2018-08-13T06:21:42.255Z,99935.60
2018-08-13T06:24:10.379Z,99930.65
2018-08-13T06:26:38.417Z,99920.39
2018-08-13T06:29:06.686Z,99929.30
2018-08-13T06:31:34.796Z,99965.69
2018-08-13T06:34:02.872Z,99985.78
2018-08-13T06:36:30.998Z,99999.52
2018-08-13T06:38:59.107Z,100005.47
2018-08-13T06:41:27.168Z,99997.52
2018-08-13T06:43:55.293Z,100015.07
2018-08-13T06:46:23.311Z,100011.02
2018-08-13T06:48:51.595Z,100008.98
2018-08-13T06:51:19.650Z,100002.56
2018-08-13T06:53:47.769Z,100001.84
2018-08-13T06:56:15.803Z,100002.36
2018-08-13T06:58:43.866Z,99996.17
2018-08-13T07:01:11.921Z,99995.66
2018-08-13T07:03:40.003Z,99994.75
2018-08-13T07:06:08.116Z,99992.22
2018-08-13T07:08:36.185Z,99993.92
2018-08-13T07:11:04.343Z,99985.50
2018-08-13T07:13:32.412Z,99986.63
2018-08-13T07:16:00.505Z,99981.70
2018-08-13T07:18:28.609Z,99987.50
2018-08-13T07:20:56.712Z,99988.33
2018-08-13T07:23:31.331Z,100008.98
2018-08-13T07:25:59.432Z,100021.91
2018-08-13T07:28:27.494Z,100020.56
2018-08-13T07:30:55.566Z,100017.42
2018-08-13T07:33:23.672Z,100021.20
2018-08-13T07:35:51.728Z,100016.84
2018-08-13T07:38:19.948Z,100022.39
2018-08-13T07:40:48.075Z,100031.77
2018-08-13T07:43:16.084Z,100034.23
2018-08-13T07:45:44.163Z,100025.84
2018-08-13T07:48:12.224Z,100022.63
2018-08-13T07:50:40.334Z,100025.77
2018-08-13T07:53:08.384Z,100023.31
2018-08-13T07:55:36.444Z,100037.61
2018-08-13T07:58:04.642Z,100048.23
2018-08-13T08:00:32.713Z,100033.58
2018-08-13T08:03:00.799Z,100044.53
2018-08-13T08:05:28.860Z,100044.39
2018-08-13T08:07:56.929Z,100051.36
2018-08-13T08:10:25.012Z,100055.00
2018-08-13T08:12:53.134Z,100064.48
2018-08-13T08:15:21.211Z,100067.48
2018-08-13T08:17:49.295Z,100062.15
2018-08-13T08:20:17.468Z,100061.92
2018-08-13T08:22:45.601Z,100062.41
2018-08-13T08:25:17.252Z,100057.45
2018-08-13T08:27:45.644Z,100047.30
2018-08-13T08:30:13.963Z,100062.08
2018-08-13T08:32:42.027Z,100065.94
2018-08-13T08:35:12.568Z,100069.06
2018-08-13T08:37:40.832Z,100065.13
2018-08-13T08:40:10.807Z,100051.91
2018-08-13T08:42:38.875Z,100060.04
2018-08-13T08:45:11.652Z,100055.94
2018-08-13T08:47:39.747Z,100037.05
2018-08-13T08:50:08.067Z,100042.59
2018-08-13T08:52:36.278Z,100060.80
2018-08-13T08:55:05.597Z,100054.47
2018-08-13T08:57:33.684Z,100050.37
2018-08-13T09:00:01.821Z,100050.60
2018-08-13T09:02:29.932Z,100042.73
2018-08-13T09:04:58.019Z,100030.70
2018-08-13T09:07:26.075Z,100032.66
2018-08-13T09:09:54.136Z,100038.09
2018-08-13T09:12:22.199Z,100044.86
2018-08-13T09:14:50.271Z,100052.14
2018-08-13T09:17:18.374Z,100037.50
2018-08-13T09:19:57.902Z,100047.17
2018-08-13T09:22:37.292Z,100030.17
2018-08-13T09:25:16.744Z,100048.62
2018-08-13T09:27:56.089Z,100048.27
2018-08-13T09:30:35.458Z,100035.56
2018-08-13T09:33:15.175Z,100049.80
2018-08-13T09:35:43.335Z,100049.36
2018-08-13T09:38:11.403Z,100051.16
2018-08-13T09:40:39.542Z,100047.73
2018-08-13T09:43:07.613Z,100041.59
2018-08-13T09:45:35.697Z,100031.00
2018-08-13T09:48:04.091Z,100032.09
2018-08-13T09:50:32.202Z,100034.08
2018-08-13T09:53:00.278Z,100028.38
2018-08-13T09:55:28.393Z,100016.97
2018-08-13T09:57:56.485Z,100023.77
2018-08-13T10:00:30.008Z,100033.81
2018-08-13T10:02:58.036Z,100038.13
2018-08-13T10:05:26.260Z,100039.48
2018-08-13T10:07:54.415Z,100033.01
2018-08-13T10:10:22.575Z,100039.00
2018-08-13T10:12:50.764Z,100034.18
2018-08-13T10:15:18.897Z,100029.83
2018-08-13T10:17:47.023Z,100033.08
2018-08-13T10:20:19.168Z,100031.99
2018-08-13T10:22:47.384Z,100037.45
2018-08-13T10:25:15.461Z,100041.23
2018-08-13T10:27:43.595Z,100046.68
2018-08-13T10:30:13.026Z,100048.18
2018-08-13T10:32:41.583Z,100051.97
2018-08-13T10:35:10.060Z,100056.38
2018-08-13T10:37:38.851Z,100050.59
2018-08-13T10:40:09.458Z,100058.24
2018-08-13T10:42:37.902Z,100046.61
2018-08-13T10:45:06.124Z,100045.49
2018-08-13T10:47:34.211Z,100037.66
2018-08-13T10:50:02.395Z,100034.39
2018-08-13T10:52:30.470Z,100029.17
2018-08-13T10:54:58.562Z,100028.14
2018-08-13T10:57:26.623Z,100024.61
2018-08-13T10:59:54.763Z,100019.77
2018-08-13T11:02:22.849Z,100001.01
2018-08-13T11:04:50.923Z,100004.79
2018-08-13T11:07:19.004Z,99996.08
2018-08-13T11:09:47.069Z,100002.30
2018-08-13T11:12:15.219Z,99998.75
2018-08-13T11:14:43.284Z,99999.86
2018-08-13T11:17:11.432Z,99996.11
2018-08-13T11:19:39.595Z,100005.06
2018-08-13T11:22:07.658Z,99996.62
2018-08-13T11:24:35.723Z,99993.11
2018-08-13T11:27:03.778Z,99998.00
2018-08-13T11:29:31.846Z,99996.38
2018-08-13T11:31:59.905Z,99994.20
2018-08-13T11:34:27.951Z,99996.65
2018-08-13T11:36:56.026Z,99994.17
2018-08-13T11:39:24.091Z,99991.50
2018-08-13T11:41:52.413Z,99992.84
2018-08-13T11:44:20.456Z,99985.48
2018-08-13T11:46:48.545Z,99982.77
2018-08-13T11:49:16.631Z,99985.50
2018-08-13T11:51:44.718Z,99977.63
2018-08-13T11:54:12.824Z,99980.58
2018-08-13T11:56:40.891Z,99977.03
2018-08-13T11:59:08.952Z,99978.13
2018-08-13T12:01:37.030Z,99972.95
2018-08-13T12:04:05.100Z,99969.19
2018-08-13T12:06:33.158Z,99967.25
2018-08-13T12:09:01.224Z,99957.67
2018-08-13T12:11:29.300Z,99973.44
2018-08-13T12:13:57.340Z,99973.69
2018-08-13T12:16:25.400Z,99974.23
2018-08-13T12:18:53.487Z,99971.03
2018-08-13T12:21:21.602Z,99980.29
2018-08-13T12:23:49.630Z,99962.05
2018-08-13T12:26:17.705Z,99974.27
2018-08-13T12:28:45.762Z,99974.59
2018-08-13T12:31:13.806Z,99988.75
2018-08-13T12:33:41.861Z,99974.89
2018-08-13T12:36:09.920Z,99978.96
2018-08-13T12:38:38.020Z,99964.55
2018-08-13T12:41:06.171Z,99960.20
2018-08-13T12:43:34.193Z,99953.88
2018-08-13T12:46:02.268Z,99950.84
2018-08-13T12:48:30.328Z,99941.88
2018-08-13T12:50:58.439Z,99941.84
2018-08-13T12:53:26.439Z,99928.89
2018-08-13T12:55:54.487Z,99910.17
2018-08-13T12:58:22.553Z,99920.06
2018-08-13T13:00:55.867Z,99909.64
2018-08-13T13:03:23.991Z,99908.95
2018-08-13T13:05:52.050Z,99899.92
2018-08-13T13:08:20.111Z,99901.22
2018-08-13T13:10:48.193Z,99896.17
2018-08-13T13:13:16.256Z,99896.39
2018-08-13T13:15:44.334Z,99903.62
2018-08-13T13:18:12.457Z,99904.09
2018-08-13T13:20:40.566Z,99902.37
2018-08-13T13:23:08.636Z,99909.08
2018-08-13T13:25:36.695Z,99900.53
2018-08-13T13:28:04.790Z,99898.40
2018-08-13T13:30:32.911Z,99895.45
2018-08-13T13:33:00.998Z,99889.41
2018-08-13T13:35:29.043Z,99896.74
2018-08-13T13:37:57.108Z,99891.66
2018-08-13T13:40:25.264Z,99878.13
2018-08-13T13:42:53.235Z,99871.76
2018-08-13T13:45:21.278Z,99868.09
2018-08-13T13:47:49.351Z,99850.00
2018-08-13T13:50:18.527Z,99855.16
2018-08-13T13:52:46.673Z,99852.62
2018-08-13T13:55:15.084Z,99853.25
2018-08-13T13:57:43.356Z,99852.97
2018-08-13T14:00:17.380Z,99853.07
2018-08-13T14:02:46.267Z,99850.84
2018-08-13T14:05:14.407Z,99852.00
2018-08-13T14:07:42.550Z,99848.25
2018-08-13T14:10:13.119Z,99844.23
2018-08-13T14:12:41.176Z,99838.78
2018-08-13T14:15:11.080Z,99848.20
2018-08-13T14:17:39.236Z,99851.58
2018-08-13T14:20:08.199Z,99851.89
2018-08-13T14:22:36.266Z,99855.37
2018-08-13T14:25:05.359Z,99846.13
2018-08-13T14:27:33.435Z,99837.06
2018-08-13T14:30:01.524Z,99838.58
2018-08-13T14:32:29.772Z,99824.35
2018-08-13T14:34:57.831Z,99827.55
2018-08-13T14:37:25.907Z,99832.20
2018-08-13T14:39:54.075Z,99835.84
2018-08-13T14:42:22.041Z,99832.64
2018-08-13T14:44:50.111Z,99827.66
2018-08-13T14:47:18.164Z,99828.33
2018-08-13T14:49:46.216Z,99834.81
2018-08-13T14:52:14.279Z,99830.92
2018-08-13T14:54:42.342Z,99829.91
2018-08-13T14:57:10.376Z,99829.52
2018-08-13T14:59:38.455Z,99827.80
2018-08-13T15:02:06.528Z,99829.86
2018-08-13T15:04:34.634Z,99823.67
2018-08-13T15:07:02.911Z,99822.41
2018-08-13T15:09:31.291Z,99821.33
2018-08-13T15:11:59.370Z,99815.27
2018-08-13T15:14:27.439Z,99804.27
2018-08-13T15:19:56.934Z,99806.81
2018-08-13T15:22:25.054Z,99794.41
2018-08-13T15:24:53.150Z,99788.06
2018-08-13T15:27:21.358Z,99793.59
2018-08-13T15:29:49.308Z,99790.19
2018-08-13T15:32:17.400Z,99786.19
2018-08-13T15:34:45.460Z,99786.09
2018-08-13T15:37:13.574Z,99780.75
2018-08-13T15:39:41.628Z,99777.96
2018-08-13T15:42:09.708Z,99772.94
2018-08-13T15:44:37.756Z,99770.00
2018-08-13T15:47:05.919Z,99763.27
2018-08-13T15:49:34.120Z,99761.62
2018-08-13T15:52:02.263Z,99757.63
2018-08-13T15:54:30.347Z,99761.80
2018-08-13T15:56:58.692Z,99758.64
2018-08-13T15:59:26.960Z,99761.09
2018-08-13T16:01:57.072Z,99759.30
2018-08-13T16:04:26.141Z,99763.28
2018-08-13T16:06:55.295Z,99762.13
2018-08-13T16:09:24.863Z,99769.14
2018-08-13T16:11:53.248Z,99764.66
2018-08-13T16:14:22.985Z,99774.27
2018-08-13T16:16:51.345Z,99765.92
2018-08-13T16:19:20.652Z,99766.92
2018-08-13T16:21:49.474Z,99767.02
2018-08-13T16:24:18.904Z,99760.89
2018-08-13T16:26:52.268Z,99762.97
2018-08-13T16:29:22.882Z,99757.61
2018-08-13T16:31:51.474Z,99756.13
2018-08-13T16:34:19.887Z,99764.66
2018-08-13T16:48:50.078Z,99759.84
2018-08-13T16:51:18.126Z,99763.47
2018-08-13T16:53:46.207Z,99766.03
2018-08-13T16:56:14.368Z,99764.39
2018-08-13T16:58:42.431Z,99761.66
2018-08-13T17:01:10.542Z,99767.36
2018-08-13T17:03:38.643Z,99765.25
2018-08-13T17:06:06.707Z,99770.27
2018-08-13T17:08:34.771Z,99762.77
2018-08-13T17:11:05.811Z,99762.53
2018-08-13T17:13:33.955Z,99762.11
2018-08-13T17:16:02.019Z,99767.31
2018-08-13T17:18:30.083Z,99766.45
2018-08-13T17:20:58.192Z,99760.59
2018-08-13T17:23:26.260Z,99755.79
2018-08-13T17:25:54.359Z,99756.97
2018-08-13T17:28:22.506Z,99755.35
2018-08-13T17:30:57.087Z,99761.80
2018-08-13T17:33:25.200Z,99762.86
2018-08-13T17:35:53.288Z,99770.98
2018-08-13T17:38:21.592Z,99777.33
2018-08-13T17:40:49.691Z,99778.97
2018-08-13T17:43:17.851Z,99784.94
2018-08-13T17:45:45.835Z,99790.30
2018-08-13T17:48:13.895Z,99794.38
2018-08-13T17:50:41.981Z,99798.98
2018-08-13T17:53:10.703Z,99790.25
2018-08-13T17:55:38.839Z,99800.77
2018-08-13T17:58:06.990Z,99793.91
2018-08-13T18:00:35.094Z,99797.19
2018-08-13T18:03:03.203Z,99796.97
2018-08-13T18:05:31.322Z,99802.19
2018-08-13T18:07:59.495Z,99803.91
2018-08-13T18:10:29.202Z,99805.27
2018-08-13T18:12:58.615Z,99796.39
2018-08-13T18:15:26.720Z,99818.63
2018-08-13T18:17:54.839Z,99861.34
2018-08-13T18:20:22.904Z,99883.08
2018-08-13T18:22:50.978Z,99880.03
2018-08-13T18:25:19.106Z,99885.13
2018-08-13T18:27:48.472Z,99892.84
2018-08-13T18:30:18.160Z,99910.09
2018-08-13T18:32:46.219Z,99897.41
2018-08-13T18:35:14.549Z,99899.58
2018-08-13T18:37:42.812Z,99909.37
2018-08-13T18:40:16.440Z,99916.42
2018-08-13T18:42:44.630Z,99915.59
2018-08-13T18:45:12.806Z,99919.84
2018-08-13T18:47:40.895Z,99914.66
2018-08-13T18:50:11.270Z,99920.30
2018-08-13T18:52:39.496Z,99920.89
2018-08-13T18:55:08.162Z,99924.53
2018-08-13T18:57:36.283Z,99922.08
2018-08-13T19:00:07.242Z,99923.38
2018-08-13T19:02:35.372Z,99919.30
2018-08-13T19:05:03.416Z,99921.47
2018-08-13T19:07:31.542Z,99917.41
2018-08-13T19:09:59.619Z,99917.39
2018-08-13T19:12:27.701Z,99914.39
2018-08-13T19:14:55.799Z,99923.52
2018-08-13T19:17:23.975Z,99927.36
2018-08-13T19:19:52.053Z,99936.59
2018-08-13T19:22:23.409Z,99942.54
2018-08-13T19:24:51.515Z,99940.14
2018-08-13T19:27:19.691Z,99940.14
2018-08-13T19:29:47.781Z,99947.45
2018-08-13T19:32:15.915Z,99944.11
2018-08-13T19:34:43.991Z,99946.27
2018-08-13T19:37:12.085Z,99953.12
2018-08-13T19:39:40.188Z,99947.35
2018-08-13T19:42:10.358Z,99954.68
2018-08-13T19:44:39.105Z,99958.69
2018-08-13T19:47:07.574Z,99966.12
2018-08-13T19:49:36.073Z,99959.05
2018-08-13T19:52:09.125Z,99964.19
2018-08-13T19:54:37.809Z,99967.72
2018-08-13T19:57:06.876Z,99964.73
2018-08-13T19:59:35.870Z,99968.41
2018-08-13T20:02:04.128Z,99976.31
2018-08-13T20:04:32.801Z,99966.03
2018-08-13T20:07:00.985Z,99971.72
2018-08-13T20:09:29.232Z,99966.55
2018-08-13T20:12:00.915Z,99973.28
2018-08-13T20:14:29.264Z,99967.46
2018-08-13T20:16:58.949Z,99970.77
2018-08-13T20:19:29.435Z,99979.37
2018-08-13T20:21:57.889Z,99975.28
2018-08-13T20:24:29.338Z,99986.58
2018-08-13T20:26:58.093Z,99989.88
2018-08-13T20:29:27.474Z,99988.18
2018-08-13T20:31:55.716Z,99987.11
2018-08-13T20:34:23.911Z,99982.47
2018-08-13T20:36:52.202Z,99995.22
2018-08-13T20:39:20.384Z,99998.41
2018-08-13T20:41:48.629Z,100003.59
2018-08-13T20:44:17.232Z,100004.59
2018-08-13T20:46:46.107Z,100004.59
2018-08-13T20:49:14.301Z,100008.72
2018-08-13T20:51:43.758Z,100015.02
2018-08-13T20:54:12.401Z,100009.59
2018-08-13T20:59:21.072Z,100018.02
2018-08-13T21:01:49.280Z,100012.36
2018-08-13T21:04:18.604Z,100020.65
2018-08-13T21:06:47.387Z,100022.88
2018-08-13T21:09:16.657Z,100025.27
2018-08-13T21:11:44.827Z,100028.39
2018-08-13T21:14:13.840Z,100028.28
2018-08-13T21:16:42.534Z,100033.67
2018-08-13T21:19:10.786Z,100031.78
2018-08-13T21:21:39.309Z,100038.80
2018-08-13T21:24:07.530Z,100043.48
2018-08-13T21:26:35.887Z,100040.48
2018-08-13T21:29:04.183Z,100039.38
2018-08-13T21:31:32.486Z,100044.72
2018-08-13T21:34:00.729Z,100048.22
2018-08-13T21:36:29.120Z,100046.60
2018-08-13T21:38:57.390Z,100047.95
2018-08-13T21:41:25.857Z,100045.18
2018-08-13T21:43:56.406Z,100055.43
2018-08-13T21:46:24.751Z,100060.68
2018-08-13T21:48:53.352Z,100057.44
2018-08-13T21:51:21.709Z,100064.41
2018-08-13T21:53:50.150Z,100068.22
2018-08-13T21:56:18.317Z,100062.70
2018-08-13T21:58:47.195Z,100073.83
2018-08-13T22:01:20.969Z,100075.80
2018-08-13T22:03:50.935Z,100073.81
2018-08-13T22:06:19.192Z,100075.20
2018-08-13T22:08:47.594Z,100070.27
2018-08-13T22:11:15.997Z,100076.62
2018-08-13T22:13:44.529Z,100071.21
2018-08-13T22:16:12.772Z,100068.50
2018-08-13T22:18:41.071Z,100074.56
2018-08-13T22:21:09.371Z,100074.90
2018-08-13T22:23:47.569Z,100072.41
2018-08-13T22:26:15.776Z,100082.15
2018-08-13T22:28:44.050Z,100080.72
2018-08-13T22:31:13.648Z,100078.75
2018-08-13T22:33:41.719Z,100075.78
2018-08-13T22:36:09.882Z,100081.45
2018-08-13T22:38:37.978Z,100083.85
2018-08-13T22:41:06.421Z,100083.68
2018-08-13T22:43:34.527Z,100082.38
2018-08-13T22:46:02.601Z,100087.00
2018-08-13T22:48:30.845Z,100084.77
2018-08-13T22:50:58.939Z,100086.99
2018-08-13T22:53:27.048Z,100084.25
2018-08-13T22:55:55.183Z,100084.16
2018-08-13T22:58:23.283Z,100088.22
2018-08-13T23:00:51.432Z,100092.06
2018-08-13T23:03:19.640Z,100101.32
2018-08-13T23:05:47.727Z,100091.71
2018-08-13T23:08:15.817Z,100098.05
2018-08-13T23:10:43.864Z,100102.28
2018-08-13T23:13:16.235Z,100100.27
2018-08-13T23:15:44.311Z,100105.08
2018-08-13T23:18:12.376Z,100108.27
2018-08-13T23:20:40.464Z,100105.28
2018-08-13T23:23:08.812Z,100110.14
2018-08-13T23:25:37.496Z,100114.24
2018-08-13T23:28:07.738Z,100114.11
2018-08-13T23:30:35.805Z,100124.34
2018-08-13T23:33:04.057Z,100119.34
2018-08-13T23:35:32.612Z,100124.05
2018-08-13T23:38:00.662Z,100126.03
2018-08-13T23:40:28.886Z,100129.00
2018-08-13T23:42:57.028Z,100126.64
2018-08-13T23:45:27.630Z,100124.20
2018-08-13T23:47:55.711Z,100130.52
2018-08-13T23:50:24.770Z,100122.02
2018-08-13T23:52:54.832Z,100119.83
2018-08-13T23:55:26.636Z,100123.11
2018-08-13T23:57:54.954Z,100115.41
